createdAt,value
2019-03-27T00:00:15.511Z,6.50
2019-03-27T00:02:46.251Z,6.40
2019-03-27T00:05:17.659Z,6.30
2019-03-27T00:07:48.439Z,6.20
2019-03-27T00:10:19.218Z,6.20
2019-03-27T00:12:50.007Z,6.20
2019-03-27T00:15:20.744Z,6.20
2019-03-27T00:17:51.626Z,6.10
2019-03-27T00:20:22.871Z,6.10
2019-03-27T00:22:53.606Z,6.00
2019-03-27T00:25:24.339Z,5.90
2019-03-27T00:27:55.277Z,5.70
2019-03-27T00:30:26.096Z,5.50
2019-03-27T00:32:56.940Z,5.40
2019-03-27T00:35:27.685Z,5.50
2019-03-27T00:38:00.245Z,5.30
2019-03-27T00:40:30.955Z,5.20
2019-03-27T00:43:01.799Z,5.20
2019-03-27T00:45:32.556Z,5.30
2019-03-27T00:48:04.542Z,5.30
2019-03-27T00:50:35.367Z,5.30
2019-03-27T00:53:06.235Z,5.20
2019-03-27T00:55:37.152Z,5.10
2019-03-27T00:58:08.182Z,5.00
2019-03-27T01:01:07.439Z,5.10
2019-03-27T01:03:38.158Z,5.10
2019-03-27T01:06:09.019Z,4.90
2019-03-27T01:08:39.997Z,4.70
2019-03-27T01:11:10.787Z,4.60
2019-03-27T01:13:41.519Z,4.40
2019-03-27T01:16:12.255Z,4.30
2019-03-27T01:18:43.239Z,4.30
2019-03-27T01:21:14.040Z,4.40
2019-03-27T01:24:03.124Z,4.50
2019-03-27T01:26:34.282Z,4.60
2019-03-27T01:29:05.175Z,4.70
2019-03-27T01:31:35.908Z,4.70
2019-03-27T01:34:06.688Z,4.40
2019-03-27T01:36:37.460Z,4.40
2019-03-27T01:39:09.851Z,4.40
2019-03-27T01:41:40.583Z,4.30
2019-03-27T01:44:11.315Z,4.20
2019-03-27T01:46:41.959Z,4.30
2019-03-27T01:49:13.795Z,4.40
2019-03-27T01:51:44.467Z,4.50
2019-03-27T01:54:33.646Z,4.50
2019-03-27T01:57:04.596Z,4.20
2019-03-27T01:59:36.524Z,4.20
2019-03-27T02:02:07.347Z,4.10
2019-03-27T02:04:38.080Z,4.10
2019-03-27T02:07:09.259Z,4.10
2019-03-27T02:09:40.060Z,4.10
2019-03-27T02:12:10.875Z,4.10
2019-03-27T02:14:41.616Z,4.10
2019-03-27T02:17:12.367Z,4.10
2019-03-27T02:19:43.100Z,4.10
2019-03-27T02:22:14.244Z,4.10
2019-03-27T02:24:45.011Z,4.10
2019-03-27T02:27:15.757Z,4.10
2019-03-27T02:29:46.492Z,4.20
2019-03-27T02:32:20.610Z,4.10
2019-03-27T02:34:49.809Z,4.00
2019-03-27T02:37:20.631Z,4.00
2019-03-27T02:39:51.352Z,4.10
2019-03-27T02:42:22.214Z,4.00
2019-03-27T02:44:52.912Z,4.00
2019-03-27T02:47:23.828Z,3.90
2019-03-27T02:49:54.676Z,3.50
2019-03-27T02:52:25.455Z,3.20
2019-03-27T02:54:56.382Z,3.10
2019-03-27T02:57:27.365Z,3.00
2019-03-27T02:59:58.556Z,3.10
2019-03-27T03:02:29.352Z,3.00
2019-03-27T03:05:00.351Z,2.90
2019-03-27T03:07:31.487Z,2.80
2019-03-27T03:10:02.234Z,2.90
2019-03-27T03:12:32.905Z,2.80
2019-03-27T03:15:03.743Z,2.80
2019-03-27T03:17:34.643Z,3.00
2019-03-27T03:20:05.963Z,3.20
2019-03-27T03:22:36.780Z,3.30
2019-03-27T03:25:07.832Z,3.30
2019-03-27T03:27:39.724Z,3.30
2019-03-27T03:30:11.111Z,3.30
2019-03-27T03:32:41.930Z,3.20
2019-03-27T03:35:12.983Z,3.10
2019-03-27T03:37:43.739Z,3.30
2019-03-27T03:40:15.783Z,3.50
2019-03-27T03:42:46.789Z,3.10
2019-03-27T03:45:18.272Z,2.80
2019-03-27T03:47:49.281Z,2.60
2019-03-27T03:50:51.021Z,2.50
2019-03-27T03:53:40.495Z,2.50
2019-03-27T03:56:14.251Z,2.30
2019-03-27T03:58:45.112Z,2.30
2019-03-27T04:01:18.285Z,2.20
2019-03-27T04:03:51.415Z,2.30
2019-03-27T04:06:22.132Z,2.30
2019-03-27T04:08:53.204Z,2.30
2019-03-27T04:11:23.953Z,2.10
2019-03-27T04:13:54.739Z,2.10
2019-03-27T04:16:25.493Z,2.10
2019-03-27T04:18:56.348Z,2.00
2019-03-27T04:21:27.270Z,1.80
2019-03-27T04:23:58.131Z,1.80
2019-03-27T04:26:33.189Z,1.70
2019-03-27T04:29:01.421Z,1.70
2019-03-27T04:31:32.223Z,1.80
2019-03-27T04:34:02.954Z,2.00
2019-03-27T04:36:33.816Z,2.10
2019-03-27T04:39:05.251Z,2.20
2019-03-27T04:41:35.991Z,2.40
2019-03-27T04:44:06.886Z,2.20
2019-03-27T04:46:37.552Z,2.10
2019-03-27T04:49:09.416Z,2.00
2019-03-27T04:51:40.305Z,1.90
2019-03-27T04:54:11.034Z,1.80
2019-03-27T04:56:41.859Z,1.90
2019-03-27T04:59:13.684Z,1.80
2019-03-27T05:01:44.523Z,1.70
2019-03-27T05:04:15.395Z,1.60
2019-03-27T05:06:46.116Z,1.60
2019-03-27T05:09:16.988Z,1.40
2019-03-27T05:11:47.893Z,1.50
2019-03-27T05:14:18.527Z,1.50
2019-03-27T05:16:49.286Z,1.50
2019-03-27T05:19:21.139Z,1.60
2019-03-27T05:21:51.942Z,1.80
2019-03-27T05:24:22.817Z,2.00
2019-03-27T05:26:53.735Z,2.20
2019-03-27T05:29:24.792Z,1.80
2019-03-27T05:31:55.514Z,1.40
2019-03-27T05:34:26.364Z,1.30
2019-03-27T05:36:57.112Z,1.50
2019-03-27T05:39:28.017Z,1.30
2019-03-27T05:41:58.643Z,1.50
2019-03-27T05:44:29.370Z,2.00
2019-03-27T05:47:00.251Z,2.10
2019-03-27T05:49:31.132Z,2.10
2019-03-27T05:52:01.918Z,2.00
2019-03-27T05:54:32.611Z,2.20
2019-03-27T05:57:03.411Z,2.30
2019-03-27T05:59:34.214Z,2.10
2019-03-27T06:02:04.950Z,2.10
2019-03-27T06:04:35.594Z,2.10
2019-03-27T06:07:06.320Z,2.30
2019-03-27T06:09:37.240Z,2.40
2019-03-27T06:12:07.988Z,2.30
2019-03-27T06:14:39.950Z,2.50
2019-03-27T06:17:10.563Z,2.70
2019-03-27T06:19:41.384Z,2.80
2019-03-27T06:22:14.941Z,3.00
2019-03-27T06:24:44.399Z,3.10
2019-03-27T06:27:15.544Z,2.90
2019-03-27T06:29:46.199Z,3.00
2019-03-27T06:32:17.033Z,2.90
2019-03-27T06:34:48.177Z,3.20
2019-03-27T06:37:18.912Z,3.20
2019-03-27T06:39:50.056Z,3.50
2019-03-27T06:42:20.689Z,3.60
2019-03-27T06:44:56.117Z,3.50
2019-03-27T06:47:27.691Z,3.50
2019-03-27T06:50:02.296Z,3.80
2019-03-27T06:52:33.147Z,4.00
2019-03-27T06:55:06.282Z,4.20
2019-03-27T06:57:38.361Z,4.30
2019-03-27T07:00:10.720Z,4.30
2019-03-27T07:02:41.493Z,4.40
2019-03-27T07:05:12.425Z,4.50
2019-03-27T07:07:44.746Z,4.60
2019-03-27T07:10:16.271Z,4.60
2019-03-27T07:12:47.150Z,4.60
2019-03-27T07:15:18.065Z,4.80
2019-03-27T07:17:48.644Z,4.90
2019-03-27T07:20:19.722Z,5.00
2019-03-27T07:22:50.438Z,5.10
2019-03-27T07:25:21.163Z,5.00
2019-03-27T07:27:52.108Z,5.10
2019-03-27T07:30:41.563Z,5.20
2019-03-27T07:33:12.437Z,5.30
2019-03-27T07:35:43.217Z,5.60
2019-03-27T07:38:14.086Z,5.50
2019-03-27T07:40:44.948Z,5.50
2019-03-27T07:43:17.719Z,5.60
2019-03-27T07:45:48.021Z,5.70
2019-03-27T07:48:18.896Z,5.70
2019-03-27T07:50:49.711Z,5.90
2019-03-27T07:53:22.467Z,6.00
2019-03-27T07:55:52.941Z,6.10
2019-03-27T07:58:24.794Z,6.20
2019-03-27T08:00:55.567Z,6.30
2019-03-27T08:03:26.477Z,6.30
2019-03-27T08:05:57.156Z,6.40
2019-03-27T08:08:28.508Z,6.50
2019-03-27T08:10:59.260Z,6.70
2019-03-27T08:13:30.020Z,6.80
2019-03-27T08:16:00.727Z,6.80
2019-03-27T08:18:49.948Z,6.70
2019-03-27T08:21:23.064Z,6.90
2019-03-27T08:23:53.842Z,6.90
2019-03-27T08:26:25.000Z,6.90
2019-03-27T08:28:55.939Z,6.90
2019-03-27T08:31:26.867Z,7.00
2019-03-27T08:33:58.111Z,7.20
2019-03-27T08:36:29.049Z,7.20
2019-03-27T08:39:00.152Z,6.90
2019-03-27T08:41:31.251Z,7.30
2019-03-27T08:44:02.139Z,7.50
2019-03-27T08:46:32.997Z,7.40
2019-03-27T08:49:04.949Z,7.60
2019-03-27T08:51:35.785Z,7.60
2019-03-27T08:54:07.157Z,7.80
2019-03-27T08:56:37.971Z,7.80
2019-03-27T08:59:08.712Z,7.80
2019-03-27T09:01:41.024Z,7.90
2019-03-27T09:04:11.935Z,7.70
2019-03-27T09:06:42.728Z,7.90
2019-03-27T09:09:13.468Z,8.20
2019-03-27T09:11:44.140Z,8.40
2019-03-27T09:14:15.782Z,8.60
2019-03-27T09:16:47.306Z,8.30
2019-03-27T09:19:19.353Z,8.50
2019-03-27T09:21:50.638Z,8.60
2019-03-27T09:24:21.511Z,8.40
2019-03-27T09:26:52.473Z,8.80
2019-03-27T09:29:23.973Z,8.90
2019-03-27T09:31:55.223Z,9.10
2019-03-27T09:34:26.656Z,8.80
2019-03-27T09:36:57.798Z,9.10
2019-03-27T09:39:29.281Z,9.30
2019-03-27T09:42:00.446Z,9.40
2019-03-27T09:44:32.918Z,9.20
2019-03-27T09:47:04.203Z,9.30
2019-03-27T09:49:48.631Z,9.40
2019-03-27T09:52:09.361Z,9.20
2019-03-27T09:54:41.618Z,9.10
2019-03-27T09:57:12.572Z,9.50
2019-03-27T09:59:43.901Z,9.90
2019-03-27T10:02:16.718Z,10.20
2019-03-27T10:04:47.985Z,10.20
2019-03-27T10:07:19.331Z,10.20
2019-03-27T10:09:51.912Z,10.30
2019-03-27T10:12:23.230Z,10.50
2019-03-27T10:14:53.974Z,10.40
2019-03-27T10:17:24.703Z,10.50
2019-03-27T10:20:03.782Z,10.70
2019-03-27T10:22:30.711Z,10.60
2019-03-27T10:25:01.573Z,10.70
2019-03-27T10:27:32.350Z,10.80
2019-03-27T10:30:03.195Z,11.20
2019-03-27T10:32:33.959Z,11.10
2019-03-27T10:35:04.895Z,11.20
2019-03-27T10:37:35.819Z,11.00
2019-03-27T10:40:06.981Z,11.20
2019-03-27T10:42:37.831Z,11.30
2019-03-27T10:45:09.057Z,11.50
2019-03-27T10:47:40.096Z,11.80
2019-03-27T10:50:17.383Z,11.70
2019-03-27T10:52:43.929Z,11.70
2019-03-27T10:55:14.747Z,11.70
2019-03-27T10:57:45.456Z,11.40
2019-03-27T11:00:16.807Z,11.70
2019-03-27T11:02:47.520Z,11.70
2019-03-27T11:05:18.286Z,11.80
2019-03-27T11:07:49.122Z,12.10
2019-03-27T11:10:20.074Z,12.40
2019-03-27T11:12:50.892Z,12.20
2019-03-27T11:15:22.168Z,12.20
2019-03-27T11:17:53.893Z,12.00
2019-03-27T11:20:31.115Z,11.90
2019-03-27T11:22:58.636Z,12.20
2019-03-27T11:25:33.061Z,12.40
2019-03-27T11:28:03.469Z,12.70
2019-03-27T11:30:41.685Z,13.00
2019-03-27T11:33:12.758Z,13.20
2019-03-27T11:35:43.489Z,13.10
2019-03-27T11:38:14.187Z,13.20
2019-03-27T11:40:44.963Z,13.20
2019-03-27T11:43:15.900Z,13.30
2019-03-27T11:45:48.773Z,13.20
2019-03-27T11:48:19.211Z,13.70
2019-03-27T11:50:49.839Z,14.40
2019-03-27T11:53:21.175Z,14.70
2019-03-27T11:55:54.277Z,14.80
2019-03-27T11:58:26.248Z,15.40
2019-03-27T12:00:57.583Z,15.90
2019-03-27T12:03:28.324Z,15.70
2019-03-27T12:05:59.140Z,15.90
2019-03-27T12:08:30.100Z,16.40
2019-03-27T12:11:01.013Z,16.40
2019-03-27T12:13:31.788Z,16.50
2019-03-27T12:16:02.168Z,16.30
2019-03-27T12:18:33.443Z,15.90
2019-03-27T12:21:04.230Z,15.70
2019-03-27T12:23:35.009Z,16.10
2019-03-27T12:26:05.621Z,16.20
2019-03-27T12:28:37.382Z,16.60
2019-03-27T12:31:12.577Z,16.40
2019-03-27T12:33:43.254Z,15.90
2019-03-27T12:36:14.007Z,15.80
2019-03-27T12:38:45.767Z,16.20
2019-03-27T12:41:16.614Z,16.50
2019-03-27T12:43:47.765Z,16.20
2019-03-27T12:46:18.601Z,15.80
2019-03-27T12:48:49.513Z,15.70
2019-03-27T12:51:20.326Z,16.10
2019-03-27T12:53:51.331Z,16.80
2019-03-27T12:56:22.033Z,16.70
2019-03-27T12:58:53.905Z,17.10
2019-03-27T13:01:24.328Z,16.10
2019-03-27T13:03:54.924Z,16.60
2019-03-27T13:06:27.117Z,15.90
2019-03-27T13:08:59.253Z,16.20
2019-03-27T13:11:30.204Z,16.50
2019-03-27T13:14:00.831Z,16.50
2019-03-27T13:16:31.569Z,16.30
2019-03-27T13:19:02.439Z,16.60
2019-03-27T13:21:33.855Z,16.60
2019-03-27T13:24:04.593Z,16.40
2019-03-27T13:26:35.455Z,16.60
2019-03-27T13:29:06.318Z,17.20
2019-03-27T13:31:37.017Z,17.90
2019-03-27T13:34:08.338Z,17.30
2019-03-27T13:36:42.604Z,17.60
2019-03-27T13:39:14.154Z,18.60
2019-03-27T13:41:45.208Z,18.30
2019-03-27T13:44:15.915Z,17.80
2019-03-27T13:46:46.646Z,18.10
2019-03-27T13:49:17.345Z,17.90
2019-03-27T13:51:48.009Z,17.70
2019-03-27T13:54:18.848Z,17.60
2019-03-27T13:56:49.793Z,17.30
2019-03-27T13:59:20.949Z,16.80
2019-03-27T14:01:52.229Z,17.30
2019-03-27T14:04:22.887Z,17.30
2019-03-27T14:06:53.744Z,17.70
2019-03-27T14:09:25.583Z,17.80
2019-03-27T14:11:56.317Z,17.90
2019-03-27T14:14:27.249Z,18.60
2019-03-27T14:16:58.093Z,18.30
2019-03-27T14:19:28.907Z,18.00
2019-03-27T14:22:00.560Z,17.50
2019-03-27T14:24:31.625Z,18.30
2019-03-27T14:27:03.727Z,18.10
2019-03-27T14:29:34.512Z,18.00
2019-03-27T14:32:05.489Z,17.20
2019-03-27T14:34:36.539Z,17.50
2019-03-27T14:37:07.457Z,17.50
2019-03-27T14:39:38.310Z,18.50
2019-03-27T14:42:09.120Z,18.50
2019-03-27T14:44:39.559Z,17.80
2019-03-27T14:47:09.993Z,17.60
2019-03-27T14:49:40.396Z,17.60
2019-03-27T14:52:10.983Z,17.90
2019-03-27T14:54:41.415Z,18.40
2019-03-27T14:57:11.904Z,18.70
2019-03-27T14:59:42.367Z,18.70
2019-03-27T15:02:12.964Z,20.00
2019-03-27T15:04:43.369Z,18.90
2019-03-27T15:07:13.872Z,19.20
2019-03-27T15:09:44.275Z,18.80
2019-03-27T15:12:16.708Z,17.80
2019-03-27T15:14:47.557Z,17.50
2019-03-27T15:17:18.347Z,16.80
2019-03-27T15:19:49.103Z,16.40
2019-03-27T15:22:22.795Z,16.60
2019-03-27T15:24:52.775Z,16.70
2019-03-27T15:27:23.792Z,16.90
2019-03-27T15:29:54.679Z,16.80
2019-03-27T15:32:25.324Z,16.00
2019-03-27T15:34:56.193Z,15.90
2019-03-27T15:37:27.754Z,15.50
2019-03-27T15:39:58.872Z,15.80
2019-03-27T15:42:29.625Z,15.70
2019-03-27T15:45:00.435Z,15.40
2019-03-27T15:47:31.298Z,15.10
2019-03-27T15:50:02.007Z,15.20
2019-03-27T15:52:36.881Z,14.90
2019-03-27T15:55:05.011Z,14.60
2019-03-27T15:57:35.732Z,14.50
2019-03-27T16:00:07.397Z,14.50
2019-03-27T16:02:38.207Z,14.40
2019-03-27T16:05:09.619Z,14.30
2019-03-27T16:07:40.423Z,14.20
2019-03-27T16:10:11.236Z,14.20
2019-03-27T16:12:42.304Z,14.10
2019-03-27T16:15:13.424Z,14.00
2019-03-27T16:17:44.303Z,13.80
2019-03-27T16:20:15.463Z,13.60
2019-03-27T16:22:50.956Z,13.40
2019-03-27T16:25:18.112Z,13.30
2019-03-27T16:27:49.015Z,13.20
2019-03-27T16:30:19.796Z,13.00
2019-03-27T16:32:50.527Z,13.10
2019-03-27T16:35:21.285Z,13.00
2019-03-27T16:37:52.087Z,13.00
2019-03-27T16:40:47.233Z,12.80
2019-03-27T16:43:19.099Z,12.80
2019-03-27T16:45:50.211Z,12.60
2019-03-27T16:48:20.967Z,12.50
2019-03-27T16:50:51.780Z,12.60
2019-03-27T16:53:22.498Z,12.50
2019-03-27T16:55:53.419Z,12.40
2019-03-27T16:58:24.317Z,12.20
2019-03-27T17:00:55.155Z,12.20
2019-03-27T17:03:25.990Z,12.10
2019-03-27T17:05:56.692Z,11.90
2019-03-27T17:08:27.571Z,11.90
2019-03-27T17:10:58.151Z,11.90
2019-03-27T17:13:48.787Z,11.90
2019-03-27T17:16:19.721Z,11.80
2019-03-27T17:18:51.583Z,11.80
2019-03-27T17:21:22.012Z,11.70
2019-03-27T17:23:52.542Z,11.50
2019-03-27T17:26:22.987Z,11.50
2019-03-27T17:28:53.505Z,11.30
2019-03-27T17:31:23.901Z,11.20
2019-03-27T17:33:54.292Z,11.10
2019-03-27T17:39:01.539Z,11.10
2019-03-27T17:41:31.983Z,11.20
2019-03-27T17:44:02.753Z,11.10
2019-03-27T17:46:33.427Z,11.00
2019-03-27T17:49:04.151Z,11.00
2019-03-27T17:51:34.986Z,11.00
2019-03-27T17:54:19.472Z,10.90
2019-03-27T17:56:37.583Z,10.80
2019-03-27T17:59:08.172Z,10.70
2019-03-27T18:01:38.913Z,10.70
2019-03-27T18:04:09.682Z,10.60
2019-03-27T18:06:40.603Z,10.40
2019-03-27T18:09:11.542Z,10.10
2019-03-27T18:11:42.144Z,9.90
2019-03-27T18:14:12.601Z,9.90
2019-03-27T18:16:43.158Z,9.80
2019-03-27T18:19:13.919Z,9.80
2019-03-27T18:21:44.698Z,9.60
2019-03-27T18:24:16.535Z,9.40
2019-03-27T18:26:47.313Z,9.30
2019-03-27T18:29:18.023Z,9.60
2019-03-27T18:31:49.227Z,9.70
2019-03-27T18:34:21.141Z,9.80
2019-03-27T18:36:51.994Z,9.70
2019-03-27T18:39:23.001Z,9.60
2019-03-27T18:41:53.395Z,9.50
2019-03-27T18:44:26.596Z,9.40
2019-03-27T18:46:57.342Z,9.30
2019-03-27T18:49:28.220Z,9.20
2019-03-27T18:51:58.957Z,9.20
2019-03-27T18:54:30.803Z,9.30
2019-03-27T18:57:01.657Z,9.50
2019-03-27T18:59:32.360Z,9.70
2019-03-27T19:02:03.138Z,9.80
2019-03-27T19:04:34.985Z,9.90
2019-03-27T19:07:05.711Z,10.00
2019-03-27T19:09:37.675Z,10.10
2019-03-27T19:12:08.611Z,10.00
2019-03-27T19:14:40.274Z,9.90
2019-03-27T19:17:11.493Z,9.50
2019-03-27T19:19:42.419Z,9.20
2019-03-27T19:22:13.139Z,9.00
2019-03-27T19:24:45.746Z,8.90
2019-03-27T19:27:16.713Z,9.00
2019-03-27T19:29:47.131Z,8.90
2019-03-27T19:32:17.952Z,9.00
2019-03-27T19:34:51.090Z,9.10
2019-03-27T19:37:21.377Z,9.10
2019-03-27T19:39:52.321Z,9.00
2019-03-27T19:42:24.214Z,8.90
2019-03-27T19:44:55.070Z,9.00
2019-03-27T19:47:25.955Z,8.80
2019-03-27T19:49:57.718Z,8.90
2019-03-27T19:52:28.523Z,8.80
2019-03-27T19:54:59.667Z,9.00
2019-03-27T19:57:30.113Z,9.10
2019-03-27T20:00:00.548Z,9.10
2019-03-27T20:02:31.575Z,9.10
2019-03-27T20:05:03.346Z,9.10
2019-03-27T20:07:36.271Z,9.10
2019-03-27T20:10:07.031Z,9.10
2019-03-27T20:12:38.004Z,9.10
2019-03-27T20:15:12.760Z,9.20
2019-03-27T20:17:43.753Z,9.20
2019-03-27T20:20:15.072Z,9.30
2019-03-27T20:22:46.936Z,9.40
2019-03-27T20:25:18.819Z,9.50
2019-03-27T20:27:51.202Z,9.50
2019-03-27T20:30:22.550Z,9.50
2019-03-27T20:32:53.349Z,9.50
2019-03-27T20:35:24.441Z,9.50
2019-03-27T20:37:55.127Z,9.30
2019-03-27T20:40:27.670Z,9.40
2019-03-27T20:42:58.335Z,9.40
2019-03-27T20:45:31.863Z,9.40
2019-03-27T20:48:02.719Z,9.30
2019-03-27T20:50:33.402Z,9.30
2019-03-27T20:53:04.140Z,9.30
2019-03-27T20:55:35.411Z,9.40
2019-03-27T20:58:06.215Z,9.30
2019-03-27T21:00:37.879Z,9.40
2019-03-27T21:03:08.555Z,9.40
2019-03-27T21:05:40.359Z,9.30
2019-03-27T21:08:11.253Z,9.30
2019-03-27T21:10:42.139Z,9.20
2019-03-27T21:13:12.880Z,9.20
2019-03-27T21:15:43.720Z,9.20
2019-03-27T21:18:14.906Z,9.00
2019-03-27T21:20:45.691Z,8.90
2019-03-27T21:23:16.477Z,9.00
2019-03-27T21:25:48.235Z,8.90
2019-03-27T21:28:19.115Z,9.00
2019-03-27T21:30:49.907Z,9.20
2019-03-27T21:33:20.743Z,9.10
2019-03-27T21:35:52.604Z,9.20
2019-03-27T21:38:23.440Z,8.90
2019-03-27T21:40:54.294Z,8.90
2019-03-27T21:43:24.961Z,8.90
2019-03-27T21:45:55.991Z,8.90
2019-03-27T21:48:26.734Z,8.80
2019-03-27T21:50:57.520Z,8.70
2019-03-27T21:53:28.459Z,8.60
2019-03-27T21:56:00.271Z,8.60
2019-03-27T21:58:31.011Z,8.50
2019-03-27T22:01:02.184Z,8.50
2019-03-27T22:03:33.110Z,8.40
2019-03-27T22:06:04.562Z,8.50
2019-03-27T22:08:35.267Z,8.50
2019-03-27T22:11:06.054Z,8.50
2019-03-27T22:13:36.843Z,8.50
2019-03-27T22:16:07.832Z,8.50
2019-03-27T22:18:38.698Z,8.60
2019-03-27T22:21:09.591Z,8.50
2019-03-27T22:23:40.323Z,8.60
2019-03-27T22:26:11.227Z,8.60
2019-03-27T22:28:41.862Z,8.70
2019-03-27T22:31:12.731Z,8.60
2019-03-27T22:33:43.431Z,8.60
2019-03-27T22:36:14.724Z,8.40
2019-03-27T22:38:45.360Z,8.40
2019-03-27T22:41:16.031Z,8.30
2019-03-27T22:43:46.792Z,8.40
2019-03-27T22:46:17.616Z,8.30
2019-03-27T22:48:48.526Z,8.20
2019-03-27T22:51:19.213Z,8.30
2019-03-27T22:53:50.262Z,8.40
2019-03-27T22:56:21.092Z,8.30
2019-03-27T22:58:51.796Z,8.30
2019-03-27T23:01:22.527Z,8.10
2019-03-27T23:03:53.396Z,8.10
2019-03-27T23:06:24.436Z,8.20
2019-03-27T23:08:55.247Z,8.20
2019-03-27T23:11:25.978Z,8.20
2019-03-27T23:13:56.657Z,8.30
2019-03-27T23:16:28.472Z,8.10
2019-03-27T23:18:59.252Z,8.10
2019-03-27T23:21:30.123Z,8.00
2019-03-27T23:24:00.878Z,8.10
2019-03-27T23:26:31.716Z,8.00
2019-03-27T23:29:02.482Z,7.90
2019-03-27T23:31:33.183Z,7.90
2019-03-27T23:34:04.027Z,7.70
2019-03-27T23:36:35.103Z,7.60
2019-03-27T23:39:07.546Z,7.60
2019-03-27T23:41:38.266Z,7.60
2019-03-27T23:44:09.049Z,7.50
2019-03-27T23:46:39.783Z,7.40
2019-03-27T23:49:11.233Z,7.00
2019-03-27T23:51:42.072Z,6.90
2019-03-27T23:54:12.763Z,6.60
2019-03-27T23:56:43.526Z,6.50
2019-03-27T23:59:14.375Z,6.40
